Time;durP1;ratioP1;P1;durP2;ratioP2;P2;SDS_P1;SDS_P2;PMS_P1;PMS_P2;Temp;Humidity;BMP_temperature;BMP_pressure;BME280_temperature;BME280_humidity;BME280_pressure;Samples;Min_cycle;Max_cycle;Signal;HPM_P1;HPM_P2
2023/05/04 00:01:35;;;;;;;;;;;;;;;13.13;nan;102757.13;5026940;28;19927;-82
2023/05/04 00:04:01;;;;;;;;;;;;;;;13.09;nan;102762.09;5030263;28;20255;-83
2023/05/04 00:06:26;;;;;;;;;;;;;;;13.08;nan;102759.63;5024933;28;20012;-82
2023/05/04 00:08:51;;;;;;;;;;;;;;;13.02;nan;102767.50;5025279;28;19917;-81
2023/05/04 00:11:17;;;;;;;;;;;;;;;12.96;nan;102770.25;5028935;28;19932;-82
2023/05/04 00:13:42;;;;;;;;;;;;;;;12.89;nan;102767.56;5027060;28;19921;-82
2023/05/04 00:16:08;;;;;;;;;;;;;;;12.85;nan;102758.28;5026868;28;19925;-82
2023/05/04 00:18:33;;;;;;;;;;;;;;;12.83;nan;102755.00;5028439;28;19921;-81
2023/05/04 00:20:58;;;;;;;;;;;;;;;12.79;nan;102759.16;5026204;28;20012;-82
2023/05/04 00:23:23;;;;;;;;;;;;;;;12.74;nan;102755.44;5028314;28;19921;-82
2023/05/04 00:25:49;;;;;;;;;;;;;;;12.68;nan;102757.13;5012108;28;19971;-81
2023/05/04 00:28:14;;;;;;;;;;;;;;;12.63;nan;102754.25;5028357;28;19925;-82
2023/05/04 00:30:40;;;;;;;;;;;;;;;12.60;nan;102754.69;5027205;28;19925;-82
2023/05/04 00:33:05;;;;;;;;;;;;;;;12.60;nan;102746.63;5010649;28;19971;-82
2023/05/04 00:35:30;;;;;;;;;;;;;;;12.59;nan;102755.72;5027500;28;19975;-82
2023/05/04 00:37:56;;;;;;;;;;;;;;;12.56;nan;102745.38;5028965;28;19913;-83
2023/05/04 00:40:21;;;;;;;;;;;;;;;12.54;nan;102748.28;5028334;28;19917;-82
2023/05/04 00:42:47;;;;;;;;;;;;;;;12.50;nan;102754.28;5029550;28;19928;-82
2023/05/04 00:45:13;;;;;;;;;;;;;;;12.43;nan;102761.56;5029708;28;20306;-82
2023/05/04 00:47:39;;;;;;;;;;;;;;;12.35;nan;102754.53;5028038;28;20349;-81
2023/05/04 00:50:05;;;;;;;;;;;;;;;12.31;nan;102756.81;5030757;28;20414;-83
2023/05/04 00:52:30;;;;;;;;;;;;;;;12.28;nan;102751.88;5026853;28;20204;-83
2023/05/04 00:54:56;;;;;;;;;;;;;;;12.23;nan;102745.50;5030421;28;19917;-83
2023/05/04 00:57:22;;;;;;;;;;;;;;;12.19;nan;102738.84;5028648;28;19920;-81
2023/05/04 00:59:47;;;;;;;;;;;;;;;12.14;nan;102742.19;5029398;28;19921;-81
2023/05/04 01:02:13;;;;;;;;;;;;;;;12.08;nan;102738.47;5026792;28;19917;-82
2023/05/04 01:04:38;;;;;;;;;;;;;;;12.00;nan;102744.06;5030623;28;19967;-81
2023/05/04 01:07:25;;;;;;;;;;;;;;;11.94;nan;102747.59;5029435;28;19971;-81
2023/05/04 01:10:02;;;;;;;;;;;;;;;11.87;nan;102745.97;5030130;28;19920;-83
2023/05/04 01:12:37;;;;;;;;;;;;;;;11.83;nan;102736.63;5029062;28;20339;-84
2023/05/04 01:15:02;;;;;;;;;;;;;;;11.79;nan;102747.81;5030309;28;19917;-82
2023/05/04 01:17:28;;;;;;;;;;;;;;;11.78;nan;102738.09;5027071;28;19917;-82
2023/05/04 01:19:53;;;;;;;;;;;;;;;11.75;nan;102735.78;5028704;28;20374;-82
2023/05/04 01:22:19;;;;;;;;;;;;;;;11.74;nan;102736.84;5028617;28;19925;-82
2023/05/04 01:24:45;;;;;;;;;;;;;;;11.74;nan;102734.16;5030535;28;19917;-81
2023/05/04 01:27:16;;;;;;;;;;;;;;;11.73;nan;102734.34;5028189;28;20441;-81
2023/05/04 01:29:42;;;;;;;;;;;;;;;11.69;nan;102728.59;5028373;28;19975;-81
2023/05/04 01:32:07;;;;;;;;;;;;;;;11.70;nan;102738.28;5029826;28;19921;-82
2023/05/04 01:34:34;;;;;;;;;;;;;;;11.67;nan;102730.66;5030050;28;19921;-82
2023/05/04 01:36:59;;;;;;;;;;;;;;;11.65;nan;102732.69;5030452;28;19994;-82
2023/05/04 01:39:25;;;;;;;;;;;;;;;11.62;nan;102733.09;5028022;28;19972;-83
2023/05/04 01:41:50;;;;;;;;;;;;;;;11.56;nan;102727.75;5028482;28;20146;-81
2023/05/04 01:44:15;;;;;;;;;;;;;;;11.52;nan;102726.50;5028629;28;19917;-81
2023/05/04 01:46:41;;;;;;;;;;;;;;;11.49;nan;102733.94;5030274;28;19925;-82
2023/05/04 01:49:06;;;;;;;;;;;;;;;11.46;nan;102733.50;5032218;28;19909;-82
2023/05/04 01:51:32;;;;;;;;;;;;;;;11.41;nan;102736.00;5032479;28;20437;-82
2023/05/04 01:53:57;;;;;;;;;;;;;;;11.34;nan;102725.25;5015887;28;20006;-82
2023/05/04 01:56:22;;;;;;;;;;;;;;;11.28;nan;102726.06;5031239;28;19917;-81
2023/05/04 01:58:48;;;;;;;;;;;;;;;11.24;nan;102724.00;5033558;28;20272;-82
2023/05/04 02:01:14;;;;;;;;;;;;;;;11.22;nan;102724.19;5032124;28;20333;-81
2023/05/04 02:03:39;;;;;;;;;;;;;;;11.17;nan;102724.81;5030380;28;20007;-83
2023/05/04 02:06:05;;;;;;;;;;;;;;;11.10;nan;102723.97;5014432;28;19917;-81
2023/05/04 02:08:30;;;;;;;;;;;;;;;11.03;nan;102717.78;5033541;28;19917;-82
2023/05/04 02:10:56;;;;;;;;;;;;;;;10.98;nan;102717.56;5034655;28;19921;-81
2023/05/04 02:13:21;;;;;;;;;;;;;;;10.94;nan;102721.66;5032839;28;19917;-81
2023/05/04 02:15:47;;;;;;;;;;;;;;;10.90;nan;102712.38;5034267;28;19921;-82
2023/05/04 02:18:12;;;;;;;;;;;;;;;10.87;nan;102712.78;5034371;28;20012;-83
2023/05/04 02:20:37;;;;;;;;;;;;;;;10.83;nan;102722.25;5033276;28;19917;-82
2023/05/04 02:23:03;;;;;;;;;;;;;;;10.78;nan;102722.03;5015049;28;19917;-81
2023/05/04 02:25:28;;;;;;;;;;;;;;;10.76;nan;102721.38;5034515;28;19939;-82
2023/05/04 02:27:53;;;;;;;;;;;;;;;10.70;nan;102731.06;5034511;28;19924;-81
2023/05/04 02:30:19;;;;;;;;;;;;;;;10.68;nan;102724.25;5055547;22;20500;-82
2023/05/04 02:32:45;;;;;;;;;;;;;;;10.65;nan;102724.66;5051487;28;20389;-82
2023/05/04 02:35:11;;;;;;;;;;;;;;;10.63;nan;102721.38;5052178;28;19993;-83
2023/05/04 02:37:37;;;;;;;;;;;;;;;10.59;nan;102720.91;5050623;28;19921;-83
2023/05/04 02:40:03;;;;;;;;;;;;;;;10.57;nan;102718.44;5048846;28;19971;-83
2023/05/04 02:42:28;;;;;;;;;;;;;;;10.56;nan;102715.94;5057146;28;19916;-83
2023/05/04 02:44:53;;;;;;;;;;;;;;;10.51;nan;102713.88;5047332;28;20008;-82
2023/05/04 02:47:19;;;;;;;;;;;;;;;10.48;nan;102708.09;5048172;28;20368;-82
2023/05/04 02:49:44;;;;;;;;;;;;;;;10.45;nan;102714.69;5055636;28;19921;-82
2023/05/04 02:52:09;;;;;;;;;;;;;;;10.45;nan;102713.88;5056544;28;19924;-83
2023/05/04 02:54:37;;;;;;;;;;;;;;;10.46;nan;102712.84;5055201;28;19917;-82
2023/05/04 02:57:03;;;;;;;;;;;;;;;10.43;nan;102702.53;5056429;28;19955;-82
2023/05/04 02:59:28;;;;;;;;;;;;;;;10.37;nan;102712.16;5051489;28;19917;-83
2023/05/04 03:01:54;;;;;;;;;;;;;;;10.32;nan;102703.91;5052001;28;19928;-82
2023/05/04 03:04:19;;;;;;;;;;;;;;;10.29;nan;102704.31;5035478;28;19978;-83
2023/05/04 03:06:44;;;;;;;;;;;;;;;10.26;nan;102700.16;5054805;28;19924;-82
2023/05/04 03:09:09;;;;;;;;;;;;;;;10.22;nan;102698.88;5048662;28;19994;-82
2023/05/04 03:11:35;;;;;;;;;;;;;;;10.19;nan;102698.44;5052078;28;19936;-83
2023/05/04 03:14:00;;;;;;;;;;;;;;;10.16;nan;102698.84;5049663;28;19967;-82
2023/05/04 03:16:26;;;;;;;;;;;;;;;10.14;nan;102704.38;5048965;28;19924;-82
2023/05/04 03:18:51;;;;;;;;;;;;;;;10.13;nan;102716.13;5051222;28;20259;-83
2023/05/04 03:21:16;;;;;;;;;;;;;;;10.10;nan;102702.31;5056448;28;19922;-83
2023/05/04 03:23:42;;;;;;;;;;;;;;;10.09;nan;102714.06;5051801;28;19970;-82
2023/05/04 03:26:07;;;;;;;;;;;;;;;10.05;nan;102710.09;5055684;28;20018;-82
2023/05/04 03:28:32;;;;;;;;;;;;;;;10.03;nan;102709.47;5054276;28;19917;-82
2023/05/04 03:30:57;;;;;;;;;;;;;;;10.02;nan;102707.81;5051069;28;19929;-82
2023/05/04 03:33:23;;;;;;;;;;;;;;;10.01;nan;102706.97;5051668;28;19917;-82
2023/05/04 03:35:48;;;;;;;;;;;;;;;9.98;nan;102708.22;5058928;28;20015;-82
2023/05/04 03:38:14;;;;;;;;;;;;;;;9.96;nan;102709.44;5034026;28;19964;-83
2023/05/04 03:40:39;;;;;;;;;;;;;;;9.92;nan;102709.00;5046958;28;19917;-83
2023/05/04 03:43:04;;;;;;;;;;;;;;;9.89;nan;102712.06;5039541;28;20302;-84
2023/05/04 03:45:30;;;;;;;;;;;;;;;9.86;nan;102717.78;5057534;28;19921;-83
2023/05/04 03:47:55;;;;;;;;;;;;;;;9.87;nan;102715.94;5052068;28;19960;-82
2023/05/04 03:50:23;;;;;;;;;;;;;;;9.87;nan;102715.94;5053387;28;20356;-82
2023/05/04 03:52:49;;;;;;;;;;;;;;;9.86;nan;102709.75;5056077;28;19920;-83
2023/05/04 03:55:14;;;;;;;;;;;;;;;9.88;nan;102723.81;5055903;28;19939;-83
2023/05/04 03:57:40;;;;;;;;;;;;;;;9.89;nan;102720.09;5040159;28;19917;-82
2023/05/04 04:00:05;;;;;;;;;;;;;;;9.89;nan;102714.75;5050719;28;20070;-83
2023/05/04 04:02:31;;;;;;;;;;;;;;;9.90;nan;102718.25;5052936;28;19984;-82
2023/05/04 04:04:57;;;;;;;;;;;;;;;9.92;nan;102713.53;5056808;28;19923;-83
2023/05/04 04:07:22;;;;;;;;;;;;;;;9.94;nan;102706.94;5056935;28;20461;-82
2023/05/04 04:09:47;;;;;;;;;;;;;;;9.99;nan;102715.22;5054246;28;19917;-84
2023/05/04 04:12:14;;;;;;;;;;;;;;;10.04;nan;102717.28;5041708;28;19925;-82
2023/05/04 04:14:40;;;;;;;;;;;;;;;10.07;nan;102714.25;5050097;28;20019;-82
2023/05/04 04:17:05;;;;;;;;;;;;;;;10.11;nan;102720.03;5048339;28;20461;-82
2023/05/04 04:19:30;;;;;;;;;;;;;;;10.13;nan;102715.31;5053934;28;19917;-82
2023/05/04 04:21:58;;;;;;;;;;;;;;;10.15;nan;102715.94;5053949;28;19920;-83
2023/05/04 04:24:24;;;;;;;;;;;;;;;10.20;nan;102706.25;5046498;28;20176;-83
2023/05/04 04:26:50;;;;;;;;;;;;;;;10.28;nan;102708.84;5052105;28;20750;-82
2023/05/04 04:29:16;;;;;;;;;;;;;;;10.37;nan;102712.16;5045402;28;19921;-82
2023/05/04 04:31:41;;;;;;;;;;;;;;;10.44;nan;102707.69;5046343;28;20439;-83
2023/05/04 04:34:07;;;;;;;;;;;;;;;10.54;nan;102707.28;5034322;28;19956;-83
2023/05/04 04:36:32;;;;;;;;;;;;;;;10.64;nan;102704.25;5051865;28;19921;-83
2023/05/04 04:38:57;;;;;;;;;;;;;;;10.74;nan;102710.88;5048762;28;19917;-84
2023/05/04 04:41:23;;;;;;;;;;;;;;;10.84;nan;102702.47;5051792;28;19917;-83
2023/05/04 04:43:49;;;;;;;;;;;;;;;10.92;nan;102704.94;5049126;28;19916;-83
2023/05/04 04:46:14;;;;;;;;;;;;;;;11.01;nan;102703.75;5047275;28;20392;-83
2023/05/04 04:48:40;;;;;;;;;;;;;;;11.11;nan;102708.69;5051907;28;19940;-83
2023/05/04 04:51:09;;;;;;;;;;;;;;;11.22;nan;102709.97;5046208;28;19983;-83
2023/05/04 04:53:34;;;;;;;;;;;;;;;11.33;nan;102712.06;5045509;28;19921;-83
2023/05/04 04:55:59;;;;;;;;;;;;;;;11.43;nan;102702.53;5025485;28;19974;-83
2023/05/04 04:58:25;;;;;;;;;;;;;;;11.55;nan;102707.31;5051094;28;19917;-83
2023/05/04 05:00:51;;;;;;;;;;;;;;;11.67;nan;102711.00;5050055;28;19920;-82
2023/05/04 05:03:17;;;;;;;;;;;;;;;11.78;nan;102708.56;5046332;28;19925;-83
2023/05/04 05:05:42;;;;;;;;;;;;;;;11.89;nan;102706.28;5049004;28;19916;-84
2023/05/04 05:08:10;;;;;;;;;;;;;;;11.99;nan;102706.66;5049383;28;19917;-83
2023/05/04 05:10:35;;;;;;;;;;;;;;;12.09;nan;102701.69;5048723;28;19944;-83
2023/05/04 05:13:01;;;;;;;;;;;;;;;12.22;nan;102708.91;5053317;28;19916;-84
2023/05/04 05:15:26;;;;;;;;;;;;;;;12.31;nan;102710.31;5045405;28;19925;-84
2023/05/04 05:17:51;;;;;;;;;;;;;;;12.45;nan;102711.09;5042682;28;19917;-83
2023/05/04 05:20:17;;;;;;;;;;;;;;;12.57;nan;102707.53;5051165;28;20440;-83
2023/05/04 05:22:42;;;;;;;;;;;;;;;12.69;nan;102703.13;5053440;28;20495;-83
2023/05/04 05:25:07;;;;;;;;;;;;;;;12.82;nan;102693.34;5049732;28;19962;-83
2023/05/04 05:27:33;;;;;;;;;;;;;;;12.96;nan;102695.75;5044816;28;19920;-83
2023/05/04 05:30:00;;;;;;;;;;;;;;;13.09;nan;102691.28;5048689;28;19939;-83
2023/05/04 05:32:25;;;;;;;;;;;;;;;13.22;nan;102689.38;5045679;28;19924;-85
2023/05/04 05:34:51;;;;;;;;;;;;;;;13.34;nan;102694.06;5052085;28;19926;-83
2023/05/04 05:37:16;;;;;;;;;;;;;;;13.47;nan;102692.09;5058752;28;19917;-83
2023/05/04 05:39:41;;;;;;;;;;;;;;;13.60;nan;102689.25;5049745;28;19916;-83
2023/05/04 05:42:07;;;;;;;;;;;;;;;13.74;nan;102699.94;5054323;28;19940;-83
2023/05/04 05:44:33;;;;;;;;;;;;;;;13.88;nan;102685.28;5051743;28;19927;-83
2023/05/04 05:46:58;;;;;;;;;;;;;;;14.03;nan;102690.31;5056081;28;20437;-84
2023/05/04 05:49:24;;;;;;;;;;;;;;;14.18;nan;102686.22;5053056;28;20015;-83
2023/05/04 05:51:50;;;;;;;;;;;;;;;14.35;nan;102688.28;5049436;28;19928;-83
2023/05/04 05:54:15;;;;;;;;;;;;;;;14.50;nan;102689.56;5044975;28;19925;-83
2023/05/04 05:56:40;;;;;;;;;;;;;;;14.65;nan;102689.19;5045429;28;19986;-83
2023/05/04 05:59:06;;;;;;;;;;;;;;;14.80;nan;102688.78;5048412;28;20439;-83
2023/05/04 06:01:31;;;;;;;;;;;;;;;14.96;nan;102690.00;5047005;28;20060;-82
2023/05/04 06:03:56;;;;;;;;;;;;;;;15.13;nan;102695.56;5047353;28;19998;-83
2023/05/04 06:06:22;;;;;;;;;;;;;;;15.28;nan;102699.47;5049326;28;20563;-83
2023/05/04 06:08:47;;;;;;;;;;;;;;;15.45;nan;102696.09;5048789;28;20328;-84
2023/05/04 06:11:12;;;;;;;;;;;;;;;15.58;nan;102698.56;5044304;28;20542;-83
2023/05/04 06:13:38;;;;;;;;;;;;;;;15.73;nan;102690.84;5055234;28;20019;-83
2023/05/04 06:16:03;;;;;;;;;;;;;;;15.88;nan;102702.00;5050320;28;19952;-83
2023/05/04 06:18:29;;;;;;;;;;;;;;;16.03;nan;102701.53;5052860;28;19919;-84
2023/05/04 06:20:58;;;;;;;;;;;;;;;16.18;nan;102701.88;5052715;28;20330;-84
2023/05/04 06:23:25;;;;;;;;;;;;;;;16.31;nan;102707.00;5046120;28;19971;-84
2023/05/04 06:25:50;;;;;;;;;;;;;;;16.50;nan;102701.41;5044743;28;19917;-84
2023/05/04 06:28:15;;;;;;;;;;;;;;;16.65;nan;102701.72;5044461;28;19998;-84
2023/05/04 06:30:41;;;;;;;;;;;;;;;16.81;nan;102698.28;5047537;28;19921;-84
2023/05/04 06:33:06;;;;;;;;;;;;;;;16.91;nan;102695.75;5047556;28;19917;-84
2023/05/04 06:35:32;;;;;;;;;;;;;;;17.05;nan;102693.56;5049035;28;19943;-84
2023/05/04 06:37:57;;;;;;;;;;;;;;;17.21;nan;102692.75;5048626;28;19921;-84
2023/05/04 06:40:23;;;;;;;;;;;;;;;17.42;nan;102695.81;5051452;28;20263;-83
2023/05/04 06:42:49;;;;;;;;;;;;;;;17.59;nan;102699.31;5050168;28;19956;-84
2023/05/04 06:45:14;;;;;;;;;;;;;;;17.76;nan;102691.19;5049709;28;19982;-84
2023/05/04 06:47:40;;;;;;;;;;;;;;;17.94;nan;102693.63;5046244;28;20452;-84
2023/05/04 06:50:14;;;;;;;;;;;;;;;18.14;nan;102695.81;5044043;28;19943;-83
2023/05/04 06:52:42;;;;;;;;;;;;;;;18.31;nan;102693.03;5046590;28;19916;-84
2023/05/04 06:55:07;;;;;;;;;;;;;;;18.47;nan;102692.13;5053728;28;19916;-84
2023/05/04 06:57:37;;;;;;;;;;;;;;;18.60;nan;102683.59;5041014;28;19913;-84
2023/05/04 07:00:05;;;;;;;;;;;;;;;18.71;nan;102685.41;5030889;28;20015;-84
2023/05/04 07:02:52;;;;;;;;;;;;;;;18.85;nan;102680.38;5046688;28;20507;-83
2023/05/04 07:05:19;;;;;;;;;;;;;;;19.00;nan;102677.78;5048026;28;19932;-83
2023/05/04 07:07:45;;;;;;;;;;;;;;;19.13;nan;102675.72;5043791;28;19974;-84
2023/05/04 07:10:10;;;;;;;;;;;;;;;19.28;nan;102675.84;5039793;28;20035;-83
2023/05/04 07:12:36;;;;;;;;;;;;;;;19.41;nan;102674.59;5048666;28;19921;-83
2023/05/04 07:15:02;;;;;;;;;;;;;;;19.57;nan;102676.38;5046778;28;19920;-84
2023/05/04 07:17:29;;;;;;;;;;;;;;;19.69;nan;102676.16;5039401;28;19959;-84
2023/05/04 07:19:55;;;;;;;;;;;;;;;19.83;nan;102669.19;5042093;28;19927;-84
2023/05/04 07:22:21;;;;;;;;;;;;;;;19.97;nan;102673.09;5047733;28;20849;-84
2023/05/04 07:24:49;;;;;;;;;;;;;;;20.13;nan;102668.53;5045043;28;19920;-83
2023/05/04 07:27:14;;;;;;;;;;;;;;;20.22;nan;102670.47;5032652;28;19932;-83
2023/05/04 07:29:42;;;;;;;;;;;;;;;20.35;nan;102665.63;5046210;28;20366;-83
2023/05/04 07:32:12;;;;;;;;;;;;;;;20.47;nan;102671.69;5044614;28;20029;-83
2023/05/04 07:34:37;;;;;;;;;;;;;;;20.60;nan;102664.88;5044455;28;19917;-84
2023/05/04 07:37:04;;;;;;;;;;;;;;;20.75;nan;102663.00;5047137;28;20090;-84
2023/05/04 07:39:33;;;;;;;;;;;;;;;20.89;nan;102659.78;5042660;28;19970;-84
2023/05/04 07:42:03;;;;;;;;;;;;;;;21.03;nan;102655.41;5047978;28;19921;-84
2023/05/04 07:44:31;;;;;;;;;;;;;;;21.22;nan;102650.25;5051703;28;19917;-84
2023/05/04 07:46:57;;;;;;;;;;;;;;;21.34;nan;102651.59;5055285;28;20359;-85
2023/05/04 07:49:22;;;;;;;;;;;;;;;21.49;nan;102644.50;5027442;28;20007;-84
2023/05/04 07:51:48;;;;;;;;;;;;;;;21.63;nan;102640.09;5044541;28;19921;-84
2023/05/04 07:54:13;;;;;;;;;;;;;;;21.75;nan;102643.34;5044481;28;19927;-85
2023/05/04 07:56:39;;;;;;;;;;;;;;;21.86;nan;102636.75;5044220;28;19917;-84
2023/05/04 07:59:05;;;;;;;;;;;;;;;21.95;nan;102637.00;5048966;28;20354;-84
2023/05/04 08:01:30;;;;;;;;;;;;;;;22.06;nan;102637.78;5044341;28;19917;-84
2023/05/04 08:03:56;;;;;;;;;;;;;;;22.20;nan;102636.09;5049387;28;20298;-84
2023/05/04 08:06:21;;;;;;;;;;;;;;;22.33;nan;102634.69;5042304;28;19946;-84
2023/05/04 08:08:48;;;;;;;;;;;;;;;22.46;nan;102637.59;5043392;28;20379;-83
2023/05/04 08:11:14;;;;;;;;;;;;;;;22.61;nan;102629.28;5047958;28;19960;-84
2023/05/04 08:13:40;;;;;;;;;;;;;;;22.76;nan;102631.09;5041152;28;20539;-83
2023/05/04 08:16:05;;;;;;;;;;;;;;;22.86;nan;102625.59;5027543;28;19942;-83
2023/05/04 08:18:31;;;;;;;;;;;;;;;22.96;nan;102624.69;5046159;28;20003;-83
2023/05/04 08:20:57;;;;;;;;;;;;;;;23.05;nan;102625.72;5044258;28;19924;-84
2023/05/04 08:23:22;;;;;;;;;;;;;;;23.14;nan;102626.72;5043155;28;19916;-83
2023/05/04 08:25:47;;;;;;;;;;;;;;;23.28;nan;102626.03;5045346;28;19921;-83
2023/05/04 08:28:13;;;;;;;;;;;;;;;23.46;nan;102630.78;5051845;28;19920;-83
2023/05/04 08:30:39;;;;;;;;;;;;;;;23.63;nan;102636.66;5044109;28;20375;-87
2023/05/04 08:33:04;;;;;;;;;;;;;;;23.69;nan;102630.00;5040484;28;20436;-86
2023/05/04 08:35:32;;;;;;;;;;;;;;;23.80;nan;102622.50;5047770;28;19924;-86
2023/05/04 08:37:57;;;;;;;;;;;;;;;23.93;nan;102631.94;5052218;28;19938;-88
2023/05/04 08:40:23;;;;;;;;;;;;;;;23.94;nan;102623.44;5045645;28;19920;-86
2023/05/04 08:42:49;;;;;;;;;;;;;;;23.89;nan;102630.91;5044032;28;19971;-86
2023/05/04 08:45:15;;;;;;;;;;;;;;;23.95;nan;102627.78;5024739;28;19925;-87
2023/05/04 08:47:42;;;;;;;;;;;;;;;23.99;nan;102626.09;5032538;28;19920;-86
2023/05/04 08:50:08;;;;;;;;;;;;;;;23.94;nan;102617.13;5044573;28;19960;-86
2023/05/04 08:52:34;;;;;;;;;;;;;;;23.99;nan;102625.28;5028552;28;19952;-86
2023/05/04 08:55:00;;;;;;;;;;;;;;;24.20;nan;102610.19;5051234;28;20568;-88
2023/05/04 08:57:26;;;;;;;;;;;;;;;24.36;nan;102606.16;5051575;28;19920;-87
2023/05/04 08:59:52;;;;;;;;;;;;;;;24.51;nan;102609.78;5058777;28;19917;-86
2023/05/04 09:02:21;;;;;;;;;;;;;;;24.71;nan;102609.47;5050833;28;20402;-86
2023/05/04 09:04:50;;;;;;;;;;;;;;;24.85;nan;102604.03;5050283;28;19960;-86
2023/05/04 09:07:19;;;;;;;;;;;;;;;24.92;nan;102615.44;5052234;28;19917;-87
2023/05/04 09:09:49;;;;;;;;;;;;;;;25.05;nan;102625.66;5059040;28;20302;-86
2023/05/04 09:12:18;;;;;;;;;;;;;;;25.24;nan;102636.56;5060488;28;19941;-87
2023/05/04 09:14:47;;;;;;;;;;;;;;;25.31;nan;102617.78;5051001;28;19928;-86
2023/05/04 09:17:14;;;;;;;;;;;;;;;25.30;nan;102616.97;5057822;28;19924;-86
2023/05/04 09:20:05;;;;;;;;;;;;;;;25.36;nan;102609.47;5054794;28;19917;-86
2023/05/04 09:22:44;;;;;;;;;;;;;;;25.44;nan;102617.00;5043071;28;20016;-86
2023/05/04 09:25:28;;;;;;;;;;;;;;;25.40;nan;102613.22;5050951;28;19917;-87
2023/05/04 09:27:53;;;;;;;;;;;;;;;25.48;nan;102606.22;5046692;28;19921;-86
2023/05/04 09:30:22;;;;;;;;;;;;;;;25.37;nan;102594.63;5045305;28;19921;-86
2023/05/04 09:32:48;;;;;;;;;;;;;;;25.30;nan;102586.78;5046471;28;21641;-85
2023/05/04 09:35:14;;;;;;;;;;;;;;;25.37;nan;102586.41;5045099;28;19917;-86
2023/05/04 09:37:45;;;;;;;;;;;;;;;25.27;nan;102578.34;5043426;28;20417;-86
2023/05/04 09:40:12;;;;;;;;;;;;;;;25.19;nan;102576.31;5044733;28;20678;-86
2023/05/04 09:42:37;;;;;;;;;;;;;;;25.28;nan;102589.03;5040279;28;19923;-87
2023/05/04 09:45:07;;;;;;;;;;;;;;;25.39;nan;102586.09;5042693;28;19999;-86
2023/05/04 09:47:36;;;;;;;;;;;;;;;25.37;nan;102574.63;5046047;28;19916;-85
2023/05/04 09:50:14;;;;;;;;;;;;;;;25.30;nan;102566.78;5044133;28;20374;-87
2023/05/04 09:52:40;;;;;;;;;;;;;;;25.40;nan;102572.06;5043917;28;19925;-87
2023/05/04 09:55:06;;;;;;;;;;;;;;;25.63;nan;102564.75;5043503;28;19920;-85
2023/05/04 09:57:33;;;;;;;;;;;;;;;25.93;nan;102562.50;5044360;28;19986;-86
2023/05/04 09:59:59;;;;;;;;;;;;;;;26.24;nan;102562.63;5042164;28;19924;-86
2023/05/04 10:02:35;;;;;;;;;;;;;;;26.53;nan;102570.47;5043462;28;19927;-86
2023/05/04 10:05:00;;;;;;;;;;;;;;;26.70;nan;102560.41;5043211;28;19963;-85
2023/05/04 10:07:30;;;;;;;;;;;;;;;26.87;nan;102556.94;5044007;28;20370;-85
2023/05/04 10:09:58;;;;;;;;;;;;;;;27.07;nan;102552.88;5046252;28;19920;-86
2023/05/04 10:12:23;;;;;;;;;;;;;;;26.97;nan;102540.19;5059810;28;19916;-87
2023/05/04 10:14:51;;;;;;;;;;;;;;;27.00;nan;102531.31;5062393;28;20011;-86
2023/05/04 10:17:28;;;;;;;;;;;;;;;27.08;nan;102538.78;5062255;28;19983;-88
2023/05/04 10:19:57;;;;;;;;;;;;;;;27.21;nan;102536.25;5068315;28;19916;-87
2023/05/04 10:22:41;;;;;;;;;;;;;;;27.39;nan;102546.22;5058719;28;19935;-87
2023/05/04 10:25:17;;;;;;;;;;;;;;;27.51;nan;102542.84;5066112;28;19927;-86
2023/05/04 10:27:49;;;;;;;;;;;;;;;27.51;nan;102545.59;5055731;28;20558;-85
2023/05/04 10:30:15;;;;;;;;;;;;;;;27.47;nan;102539.94;5053433;28;19976;-85
2023/05/04 10:32:41;;;;;;;;;;;;;;;27.29;nan;102536.31;5048811;28;19921;-86
2023/05/04 10:35:07;;;;;;;;;;;;;;;27.25;nan;102534.50;5053623;28;19935;-85
2023/05/04 10:37:34;;;;;;;;;;;;;;;27.27;nan;102533.03;5047800;28;19928;-86
2023/05/04 10:40:00;;;;;;;;;;;;;;;27.27;nan;102523.97;5044919;28;19932;-86
2023/05/04 10:42:25;;;;;;;;;;;;;;;27.34;nan;102525.16;5038322;28;19920;-86
2023/05/04 10:44:54;;;;;;;;;;;;;;;27.49;nan;102501.88;5052741;28;19920;-85
2023/05/04 10:47:32;;;;;;;;;;;;;;;27.74;nan;102505.00;5046118;28;20427;-85
2023/05/04 10:50:03;;;;;;;;;;;;;;;27.99;nan;102496.75;5048075;28;19928;-85
2023/05/04 10:52:29;;;;;;;;;;;;;;;28.16;nan;102492.38;5042939;28;20362;-85
2023/05/04 10:54:59;;;;;;;;;;;;;;;28.26;nan;102489.31;5049664;28;19978;-87
2023/05/04 10:57:27;;;;;;;;;;;;;;;28.41;nan;102485.25;5045493;28;19924;-86
2023/05/04 10:59:56;;;;;;;;;;;;;;;28.59;nan;102487.63;5045022;28;19917;-86
2023/05/04 11:02:22;;;;;;;;;;;;;;;28.82;nan;102485.44;5047385;28;20768;-86
2023/05/04 11:04:57;;;;;;;;;;;;;;;28.94;nan;102478.47;5058170;28;20136;-86
2023/05/04 11:07:31;;;;;;;;;;;;;;;29.13;nan;102468.63;5050034;28;20012;-86
2023/05/04 11:09:58;;;;;;;;;;;;;;;29.13;nan;102467.81;5045746;28;19923;-87
2023/05/04 11:12:23;;;;;;;;;;;;;;;29.06;nan;102460.03;5045927;28;19920;-85
2023/05/04 11:14:49;;;;;;;;;;;;;;;29.12;nan;102464.25;5044462;28;19924;-86
2023/05/04 11:17:19;;;;;;;;;;;;;;;29.26;nan;102463.97;5041941;28;19971;-86
2023/05/04 11:19:48;;;;;;;;;;;;;;;29.35;nan;102459.22;5046560;28;19963;-86
2023/05/04 11:22:15;;;;;;;;;;;;;;;29.49;nan;102453.47;5050729;28;20313;-88
2023/05/04 11:24:42;;;;;;;;;;;;;;;29.32;nan;102448.84;5041323;28;20398;-86
2023/05/04 11:27:07;;;;;;;;;;;;;;;29.41;nan;102446.03;5050716;28;19916;-86
2023/05/04 11:29:32;;;;;;;;;;;;;;;29.53;nan;102448.09;5046470;28;19929;-86
2023/05/04 11:31:58;;;;;;;;;;;;;;;29.55;nan;102443.84;5044655;28;19921;-86
2023/05/04 11:34:23;;;;;;;;;;;;;;;29.61;nan;102439.72;5026465;28;20680;-87
2023/05/04 11:36:49;;;;;;;;;;;;;;;29.57;nan;102436.03;5050504;28;20011;-86
2023/05/04 11:39:14;;;;;;;;;;;;;;;29.43;nan;102427.97;5050462;28;19934;-85
2023/05/04 11:41:40;;;;;;;;;;;;;;;29.44;nan;102421.34;5042771;28;19925;-86
2023/05/04 11:44:06;;;;;;;;;;;;;;;29.54;nan;102422.09;5045560;28;19958;-86
2023/05/04 11:46:33;;;;;;;;;;;;;;;29.57;nan;102433.28;5026382;28;19928;-86
2023/05/04 11:48:58;;;;;;;;;;;;;;;29.68;nan;102428.16;5045207;28;19948;-86
2023/05/04 11:51:24;;;;;;;;;;;;;;;29.85;nan;102425.25;5047410;28;20022;-86
2023/05/04 11:53:52;;;;;;;;;;;;;;;29.99;nan;102422.19;5047494;28;20011;-86
2023/05/04 11:56:18;;;;;;;;;;;;;;;29.97;nan;102430.00;5046804;28;19929;-86
2023/05/04 11:58:43;;;;;;;;;;;;;;;29.90;nan;102430.56;5047594;28;19931;-86
2023/05/04 12:01:08;;;;;;;;;;;;;;;29.79;nan;102427.38;5052056;28;19955;-86
2023/05/04 12:03:38;;;;;;;;;;;;;;;29.77;nan;102431.63;5052836;28;19923;-86
2023/05/04 12:06:04;;;;;;;;;;;;;;;29.86;nan;102431.56;5052118;28;19916;-87
2023/05/04 12:08:32;;;;;;;;;;;;;;;29.76;nan;102414.25;5044706;28;19978;-86
2023/05/04 12:11:11;;;;;;;;;;;;;;;29.66;nan;102419.41;5046794;28;19964;-84
2023/05/04 12:13:36;;;;;;;;;;;;;;;29.34;nan;102421.72;5050860;28;19926;-85
2023/05/04 12:16:11;;;;;;;;;;;;;;;29.24;nan;102413.00;5046934;28;19920;-87
2023/05/04 12:18:37;;;;;;;;;;;;;;;29.28;nan;102408.47;5052738;28;19928;-85
2023/05/04 12:21:12;;;;;;;;;;;;;;;29.43;nan;102402.31;5051517;28;19987;-87
2023/05/04 12:23:38;;;;;;;;;;;;;;;29.61;nan;102401.06;5048715;28;20393;-84
2023/05/04 12:26:03;;;;;;;;;;;;;;;29.77;nan;102399.28;5036427;28;19917;-85
2023/05/04 12:28:29;;;;;;;;;;;;;;;29.81;nan;102388.41;5048912;28;19917;-85
2023/05/04 12:30:54;;;;;;;;;;;;;;;29.95;nan;102396.38;5056909;28;19928;-85
2023/05/04 12:33:19;;;;;;;;;;;;;;;30.19;nan;102388.19;5048149;28;19927;-85
2023/05/04 12:35:46;;;;;;;;;;;;;;;30.47;nan;102395.81;5045528;28;20000;-86
2023/05/04 12:38:11;;;;;;;;;;;;;;;30.67;nan;102386.63;5050425;28;19920;-86
2023/05/04 12:40:37;;;;;;;;;;;;;;;30.83;nan;102389.53;5049872;28;19963;-85
2023/05/04 12:43:03;;;;;;;;;;;;;;;30.91;nan;102394.94;5058645;28;19931;-86
2023/05/04 12:45:28;;;;;;;;;;;;;;;30.89;nan;102382.63;5051229;28;20378;-87
2023/05/04 12:47:54;;;;;;;;;;;;;;;30.98;nan;102375.78;5047155;28;19920;-86
2023/05/04 12:50:19;;;;;;;;;;;;;;;30.98;nan;102370.25;5045588;28;19932;-86
2023/05/04 12:52:44;;;;;;;;;;;;;;;31.02;nan;102375.88;5043914;28;20062;-86
2023/05/04 12:55:10;;;;;;;;;;;;;;;31.08;nan;102373.72;5048095;28;19917;-86